Las Lenas/Los Molles, Argentina
Current Conditions -  °F | °C
As of 12:00 PM on Friday 28 Nov 2014 (Local Time) from SCIC Reporting Station
Clear Clear  
Wind Chill: 20°   Ceiling: Unl
Heat Index: 20°   Visibility: 6mi
Dew Point: 12°   Wind: 7mph
Humidity: 60%   Direction: 210°SSW
Pressure: 29.91"   Gusts: NA
Location:  34.97°S, 68.65°W
Report Text: SCIC 281500Z 21006KT CAVOK 20/12 Q1013
Loading
Personal Weather Stations






























Interactive Weather Map New forecast layout! Learn more

10-Day Weather Forecast

Advertisements
Track Severe Weather on mobile